Time;durP1;ratioP1;P1;durP2;ratioP2;P2;SDS_P1;SDS_P2;PMS_P1;PMS_P2;Temp;Humidity;BMP_temperature;BMP_pressure;BME280_temperature;BME280_humidity;BME280_pressure;Samples;Min_cycle;Max_cycle;Signal;HPM_P1;HPM_P2
2021/06/25 00:01:59;;;;;;;32.58;21.52;;;;;;;23.06;72.15;99868.38;5133681;27;20046;-78
2021/06/25 00:04:25;;;;;;;29.92;20.73;;;;;;;23.03;71.95;99869.59;5127151;27;20043;-78
2021/06/25 00:06:51;;;;;;;29.10;21.10;;;;;;;23.00;72.10;99871.84;5121997;27;20131;-75
2021/06/25 00:09:17;;;;;;;31.20;20.55;;;;;;;22.93;71.97;99861.03;5094647;28;20040;-78
2021/06/25 00:11:43;;;;;;;29.45;21.13;;;;;;;22.87;72.47;99861.78;5112700;28;20054;-77
2021/06/25 00:14:09;;;;;;;28.52;21.40;;;;;;;22.80;72.86;99855.50;5124387;27;20070;-76
2021/06/25 00:16:35;;;;;;;25.85;20.45;;;;;;;22.75;72.97;99856.94;5132832;27;20492;-75
2021/06/25 00:19:01;;;;;;;33.00;22.15;;;;;;;22.70;73.26;99856.66;5133438;27;20125;-74
2021/06/25 00:21:27;;;;;;;31.88;21.45;;;;;;;22.67;73.57;99853.50;5133272;27;20495;-74
2021/06/25 00:23:55;;;;;;;25.23;21.35;;;;;;;22.66;74.02;99854.56;5132770;27;20046;-75
2021/06/25 00:26:21;;;;;;;31.08;22.23;;;;;;;22.66;73.83;99849.97;5133086;27;20514;-75
2021/06/25 00:28:47;;;;;;;37.65;21.33;;;;;;;22.64;73.84;99845.81;5114321;28;20039;-77
2021/06/25 00:31:13;;;;;;;30.23;21.92;;;;;;;22.58;74.45;99842.00;5132717;27;20456;-75
2021/06/25 00:33:38;;;;;;;29.48;23.00;;;;;;;22.50;74.97;99837.59;5132740;27;20039;-76
2021/06/25 00:36:04;;;;;;;34.83;22.90;;;;;;;22.45;75.03;99846.28;5133215;27;20042;-74
2021/06/25 00:38:30;;;;;;;36.20;23.63;;;;;;;22.41;75.03;99841.47;5132824;27;20545;-76
2021/06/25 00:40:56;;;;;;;34.42;23.08;;;;;;;22.35;75.36;99843.00;5132828;27;20131;-75
2021/06/25 00:43:22;;;;;;;33.22;22.88;;;;;;;22.31;75.78;99844.44;5132366;27;20051;-76
2021/06/25 00:45:48;;;;;;;36.30;23.27;;;;;;;22.32;75.69;99826.38;5132755;28;20051;-75
2021/06/25 00:48:14;;;;;;;29.27;21.48;;;;;;;22.33;75.82;99823.53;5131861;28;20163;-76
2021/06/25 00:50:40;;;;;;;37.13;22.98;;;;;;;22.36;76.10;99820.44;5132340;28;20467;-75
2021/06/25 00:53:06;;;;;;;32.05;21.88;;;;;;;22.37;76.38;99822.13;5132625;27;20041;-76
2021/06/25 00:55:42;;;;;;;33.40;23.80;;;;;;;22.36;76.47;99809.66;5131271;28;20122;-76
2021/06/25 00:58:13;;;;;;;31.27;22.90;;;;;;;22.34;76.64;99809.00;5131511;28;20054;-74
2021/06/25 01:00:39;;;;;;;24.13;20.90;;;;;;;22.36;76.45;99801.56;5132237;28;20042;-74
2021/06/25 01:03:06;;;;;;;29.48;22.45;;;;;;;22.39;76.34;99790.44;5132601;27;20559;-77
2021/06/25 01:05:32;;;;;;;27.20;22.20;;;;;;;22.42;76.02;99800.81;5131008;28;20043;-75
2021/06/25 01:07:58;;;;;;;34.45;24.00;;;;;;;22.46;75.93;99817.44;5132474;27;20039;-75
2021/06/25 01:10:25;;;;;;;37.43;24.37;;;;;;;22.52;75.95;99821.22;5132411;28;20047;-74
2021/06/25 01:12:51;;;;;;;36.40;24.80;;;;;;;22.51;76.25;99815.00;5132600;27;20047;-75
2021/06/25 01:15:17;;;;;;;31.60;24.45;;;;;;;22.43;76.54;99823.22;5132396;28;20115;-74
2021/06/25 01:17:44;;;;;;;40.45;23.65;;;;;;;22.45;76.31;99805.84;5132307;27;20500;-75
2021/06/25 01:20:13;;;;;;;42.95;23.50;;;;;;;22.51;75.71;99819.56;5132556;28;20085;-75
2021/06/25 01:22:41;;;;;;;34.83;23.52;;;;;;;22.58;74.55;99825.84;5132148;27;20158;-77
2021/06/25 01:25:19;;;;;;;31.20;23.02;;;;;;;22.60;74.20;99807.63;5135192;27;20377;-76
2021/06/25 01:27:45;;;;;;;;;;;;;;;22.67;72.83;99795.03;5136623;27;20039;-75
2021/06/25 01:30:14;;;;;;;31.05;23.67;;;;;;;22.76;71.69;99801.94;5136039;27;19915;-75
2021/06/25 01:32:41;;;;;;;28.65;22.48;;;;;;;22.86;71.16;99806.19;5134819;27;20055;-75
2021/06/25 01:35:08;;;;;;;25.70;19.17;;;;;;;22.91;70.60;99806.44;5135003;27;20051;-75
2021/06/25 01:37:34;;;;;;;;;;;;;;;23.00;69.58;99791.75;5136528;27;20047;-75
2021/06/25 01:40:00;;;;;;;22.67;17.83;;;;;;;23.08;69.19;99794.31;5135982;27;19915;-74
2021/06/25 01:42:30;;;;;;;33.65;22.98;;;;;;;23.07;72.18;99795.31;5134520;27;20138;-74
2021/06/25 01:44:57;;;;;;;33.45;23.88;;;;;;;23.02;72.52;99805.88;5121575;27;20043;-73
2021/06/25 01:47:23;;;;;;;24.98;19.95;;;;;;;23.00;71.82;99810.63;5135441;27;20066;-74
2021/06/25 01:49:49;;;;;;;28.23;19.52;;;;;;;23.06;70.37;99807.13;5100582;27;20432;-74
2021/06/25 01:52:19;;;;;;;27.70;18.88;;;;;;;23.17;70.60;99807.69;5135899;27;20127;-73
2021/06/25 01:54:48;;;;;;;21.65;16.23;;;;;;;23.24;68.66;99813.94;5135674;27;20074;-74
2021/06/25 01:57:15;;;;;;;19.42;16.48;;;;;;;23.29;68.13;99816.91;5135924;27;20441;-72
2021/06/25 01:59:43;;;;;;;24.23;17.55;;;;;;;23.36;67.78;99827.72;5135264;27;20074;-73
2021/06/25 02:02:09;;;;;;;17.65;15.85;;;;;;;23.42;67.59;99827.75;5120736;27;20036;-75
2021/06/25 02:04:35;;;;;;;21.73;16.55;;;;;;;23.47;66.95;99820.94;5114257;28;20392;-74
2021/06/25 02:07:00;;;;;;;28.55;16.92;;;;;;;23.49;67.31;99821.56;5114194;28;20160;-75
2021/06/25 02:09:26;;;;;;;28.83;19.70;;;;;;;23.54;68.78;99827.19;5114326;28;20043;-73
2021/06/25 02:11:52;;;;;;;27.88;19.98;;;;;;;23.53;69.62;99825.53;5114779;28;20100;-74
2021/06/25 02:14:19;;;;;;;24.45;19.48;;;;;;;23.53;70.04;99822.84;5114819;28;20122;-72
2021/06/25 02:16:45;;;;;;;;;;;;;;;23.53;70.75;99833.63;5114894;28;20051;-73
2021/06/25 02:19:11;;;;;;;26.75;18.77;;;;;;;23.52;70.74;99831.97;5114967;28;19968;-75
2021/06/25 02:21:37;;;;;;;21.95;17.30;;;;;;;23.56;70.42;99833.22;5114828;28;20047;-74
2021/06/25 02:24:03;;;;;;;21.50;18.42;;;;;;;23.64;69.81;99835.78;5096679;28;20051;-75
2021/06/25 02:26:29;;;;;;;21.17;17.00;;;;;;;23.68;67.76;99826.22;5114832;28;20039;-75
2021/06/25 02:28:55;;;;;;;25.35;16.98;;;;;;;23.77;67.53;99826.06;5096077;28;20051;-75
2021/06/25 02:31:21;;;;;;;23.15;18.88;;;;;;;23.86;68.67;99832.94;5113218;28;20044;-76
2021/06/25 02:33:46;;;;;;;24.20;19.38;;;;;;;23.86;70.07;99822.13;5095897;28;20052;-74
2021/06/25 02:36:12;;;;;;;26.90;20.02;;;;;;;23.89;70.22;99821.75;5094433;28;20051;-74
2021/06/25 02:38:38;;;;;;;23.42;19.83;;;;;;;23.87;69.93;99823.81;5113912;28;20035;-75
2021/06/25 02:41:04;;;;;;;23.63;21.15;;;;;;;23.86;70.43;99811.34;5114159;28;20067;-75
2021/06/25 02:43:30;;;;;;;33.15;22.00;;;;;;;23.89;70.00;99816.34;5100820;27;20054;-76
2021/06/25 02:45:55;;;;;;;30.33;21.02;;;;;;;23.93;69.90;99808.72;5134891;27;20047;-78
2021/06/25 02:48:21;;;;;;;25.80;20.80;;;;;;;23.97;69.92;99810.78;5134649;27;20045;-75
2021/06/25 02:50:47;;;;;;;27.10;20.88;;;;;;;24.01;69.39;99813.91;5134352;27;20043;-78
2021/06/25 02:53:13;;;;;;;26.33;19.23;;;;;;;24.09;69.20;99823.69;5134644;27;20043;-76
2021/06/25 02:55:50;;;;;;;24.27;19.63;;;;;;;24.20;68.92;99823.09;5134568;27;20039;-75
2021/06/25 02:58:21;;;;;;;21.30;18.77;;;;;;;24.32;69.07;99816.06;5134482;27;20400;-77
2021/06/25 03:00:49;;;;;;;23.20;19.85;;;;;;;24.33;69.01;99815.03;5134345;27;20043;-77
2021/06/25 03:03:15;;;;;;;28.90;20.57;;;;;;;24.41;68.85;99813.16;5134563;27;20047;-76
2021/06/25 03:05:41;;;;;;;26.08;21.13;;;;;;;24.43;69.18;99805.69;5134126;27;20567;-78
2021/06/25 03:08:07;;;;;;;27.10;20.95;;;;;;;24.43;69.12;99801.09;5134211;27;20134;-76
2021/06/25 03:10:32;;;;;;;23.30;20.67;;;;;;;24.47;69.35;99796.13;5133567;27;20057;-75
2021/06/25 03:12:58;;;;;;;27.23;21.92;;;;;;;24.50;69.83;99801.09;5134066;27;20035;-73
2021/06/25 03:15:24;;;;;;;24.90;20.55;;;;;;;24.58;69.34;99806.31;5133945;27;20038;-77
2021/06/25 03:17:50;;;;;;;25.70;19.48;;;;;;;24.68;67.92;99804.06;5133952;27;20041;-75
2021/06/25 03:20:16;;;;;;;28.90;19.85;;;;;;;24.77;67.39;99799.28;5133966;27;20431;-78
2021/06/25 03:22:42;;;;;;;25.85;19.35;;;;;;;24.90;66.75;99806.56;5132503;27;20529;-74
2021/06/25 03:25:09;;;;;;;31.63;19.48;;;;;;;25.02;66.66;99804.88;5132919;27;20068;-75
2021/06/25 03:27:36;;;;;;;28.57;18.43;;;;;;;25.12;65.85;99800.91;5094781;28;20051;-76
2021/06/25 03:30:05;;;;;;;;;;;;;;;25.20;66.62;99800.69;5114394;27;20118;-74
2021/06/25 03:32:31;;;;;;;20.85;17.27;;;;;;;25.31;66.03;99789.22;5111086;27;19952;-76
2021/06/25 03:34:57;;;;;;;23.23;18.45;;;;;;;25.42;64.74;99786.91;5123633;27;20047;-76
2021/06/25 03:37:23;;;;;;;25.88;17.52;;;;;;;25.51;64.70;99785.66;5119173;27;20385;-75
2021/06/25 03:39:49;;;;;;;22.73;17.92;;;;;;;25.64;64.83;99791.00;5123549;27;20415;-75
2021/06/25 03:42:16;;;;;;;23.05;16.88;;;;;;;25.79;63.72;99795.31;5083275;27;20065;-75
2021/06/25 03:44:42;;;;;;;19.15;15.15;;;;;;;25.94;63.10;99801.28;5119595;27;20043;-74
2021/06/25 03:47:08;;;;;;;22.60;14.52;;;;;;;26.10;61.42;99799.97;5114837;27;20092;-78
2021/06/25 03:49:34;;;;;;;15.88;14.25;;;;;;;26.29;61.35;99791.94;5118010;27;20496;-76
2021/06/25 03:52:00;;;;;;;20.70;15.65;;;;;;;26.44;60.88;99794.31;5128537;27;20039;-75
2021/06/25 03:54:26;;;;;;;21.20;14.57;;;;;;;26.57;59.35;99786.09;5129368;27;20038;-74
2021/06/25 03:56:52;;;;;;;20.38;15.80;;;;;;;27.38;58.40;99777.22;5125263;27;20098;-72
2021/06/25 03:59:18;;;;;;;22.52;16.77;;;;;;;28.88;55.84;99774.66;5120475;27;20042;-73
2021/06/25 04:01:45;;;;;;;18.58;15.30;;;;;;;30.14;52.39;99780.53;5123453;27;20039;-77
2021/06/25 04:04:12;;;;;;;17.98;14.70;;;;;;;31.14;49.33;99788.19;5121843;27;20039;-77
2021/06/25 04:06:38;;;;;;;18.33;16.10;;;;;;;31.84;46.39;99784.13;5090588;27;20452;-77
2021/06/25 04:09:04;;;;;;;24.17;15.52;;;;;;;32.30;45.67;99790.09;5123394;27;20043;-77
2021/06/25 04:11:30;;;;;;;22.63;16.02;;;;;;;32.98;43.31;99795.00;5092390;27;20046;-77
2021/06/25 04:13:56;;;;;;;27.10;17.10;;;;;;;32.98;43.06;99786.78;5129745;27;20619;-76
2021/06/25 04:16:22;;;;;;;22.97;16.63;;;;;;;33.12;42.44;99787.13;5132329;27;20031;-74
2021/06/25 04:18:48;;;;;;;17.42;15.57;;;;;;;33.51;42.24;99788.72;5096958;27;20496;-75
2021/06/25 04:21:14;;;;;;;22.47;16.30;;;;;;;34.65;39.79;99790.59;5132598;27;20035;-74
2021/06/25 04:23:40;;;;;;;23.97;15.67;;;;;;;35.57;38.31;99790.69;5114156;27;20095;-74
2021/06/25 04:26:06;;;;;;;24.67;15.07;;;;;;;36.47;36.78;99791.50;5117500;27;20166;-74
2021/06/25 04:28:32;;;;;;;21.07;14.87;;;;;;;37.03;35.64;99779.13;5116071;27;20040;-82
2021/06/25 04:30:57;;;;;;;21.67;14.93;;;;;;;36.97;35.48;99782.25;5102922;27;20050;-75
2021/06/25 04:33:24;;;;;;;23.02;15.30;;;;;;;37.24;35.29;99782.47;5114700;27;20047;-75
2021/06/25 04:35:53;;;;;;;22.27;15.20;;;;;;;37.26;34.34;99795.16;5112176;27;20051;-76
2021/06/25 04:38:19;;;;;;;16.27;14.45;;;;;;;37.57;33.45;99787.34;5093824;28;20043;-76
2021/06/25 04:40:45;;;;;;;19.48;13.45;;;;;;;38.02;32.29;99787.84;5126348;27;20496;-73
2021/06/25 04:43:13;;;;;;;23.27;13.48;;;;;;;38.12;31.34;99786.88;5132409;27;20043;-76
2021/06/25 04:45:40;;;;;;;18.63;13.63;;;;;;;38.45;31.00;99778.59;5120843;27;20062;-75
2021/06/25 04:48:07;;;;;;;19.95;12.45;;;;;;;38.87;29.45;99783.41;5113181;28;20039;-76
2021/06/25 04:50:33;;;;;;;19.00;12.63;;;;;;;39.67;30.04;99785.97;5111558;28;20114;-76
2021/06/25 04:52:59;;;;;;;24.48;12.73;;;;;;;39.98;27.46;99788.88;5112016;28;20043;-77
2021/06/25 04:55:25;;;;;;;20.52;13.13;;;;;;;40.06;27.74;99790.88;5118459;27;20035;-77
2021/06/25 04:57:52;;;;;;;17.83;12.57;;;;;;;40.30;26.86;99788.97;5119660;27;20133;-77
2021/06/25 05:00:19;;;;;;;19.20;13.52;;;;;;;39.82;27.71;99779.28;5120837;27;20043;-79
2021/06/25 05:02:45;;;;;;;20.77;13.50;;;;;;;39.52;28.11;99781.56;5124037;27;20050;-75
2021/06/25 05:05:12;;;;;;;19.90;12.45;;;;;;;39.93;28.12;99780.69;5116769;27;20039;-77
2021/06/25 05:07:38;;;;;;;21.48;13.02;;;;;;;40.57;27.09;99771.41;5118965;27;20083;-78
2021/06/25 05:10:04;;;;;;;16.15;13.10;;;;;;;40.46;27.16;99775.56;5135106;27;20047;-77
2021/06/25 05:12:31;;;;;;;22.05;12.05;;;;;;;40.79;26.59;99776.09;5108968;27;20507;-78
2021/06/25 05:14:56;;;;;;;23.15;12.50;;;;;;;41.43;26.27;99774.88;5131215;27;20539;-76
2021/06/25 05:17:28;;;;;;;18.13;8.68;;;;;;;41.54;23.49;99775.38;5117966;27;20042;-78
2021/06/25 05:19:55;;;;;;;18.05;9.40;;;;;;;40.99;24.07;99780.28;5136571;27;20081;-76
2021/06/25 05:22:21;;;;;;;15.60;7.68;;;;;;;41.81;23.33;99770.66;5136411;27;20621;-76
2021/06/25 05:24:46;;;;;;;;;;;;;;;42.64;22.62;99769.59;5117656;27;20082;-78
2021/06/25 05:27:12;;;;;;;16.80;7.88;;;;;;;42.68;22.35;99773.34;5136636;27;19915;-77
2021/06/25 05:29:56;;;;;;;14.25;7.40;;;;;;;42.17;22.29;99770.34;5103056;27;20051;-77
2021/06/25 05:32:22;;;;;;;;;;;;;;;42.15;22.92;99777.38;5117332;27;20100;-76
2021/06/25 05:34:48;;;;;;;12.90;7.10;;;;;;;42.34;22.44;99768.69;5104789;27;20433;-81
2021/06/25 05:37:14;;;;;;;9.52;6.50;;;;;;;42.28;21.84;99776.38;5076233;28;20047;-80
2021/06/25 05:39:40;;;;;;;;;;;;;;;41.74;23.41;99773.09;5097440;28;20127;-77
2021/06/25 05:42:07;;;;;;;9.30;7.63;;;;;;;41.88;22.91;99780.16;5099447;27;19916;-76
2021/06/25 05:44:32;;;;;;;;;;;;;;;42.46;22.62;99779.97;5116443;27;20050;-79
2021/06/25 05:46:58;;;;;;;11.38;8.45;;;;;;;42.66;22.42;99775.66;5115190;28;19919;-77
2021/06/25 05:49:23;;;;;;;;;;;;;;;42.42;22.81;99780.94;5081930;27;20042;-82
2021/06/25 05:51:49;;;;;;;11.82;8.57;;;;;;;42.06;23.65;99780.16;5094205;27;19915;-85
2021/06/25 05:54:15;;;;;;;;;;;;;;;42.52;23.26;99786.16;5100769;27;20126;-79
2021/06/25 05:56:42;;;;;;;10.50;9.40;;;;;;;42.40;23.37;99777.66;5134604;27;20283;-84
2021/06/25 05:59:08;;;;;;;15.23;9.65;;;;;;;42.09;24.00;99775.91;5132993;27;20038;-81
2021/06/25 06:01:34;;;;;;;;;;;;;;;42.08;24.00;99777.84;5116557;27;20087;-83
2021/06/25 06:03:59;;;;;;;14.80;9.02;;;;;;;42.53;23.17;99776.66;5133826;27;20399;-80
2021/06/25 06:06:25;;;;;;;;;;;;;;;43.53;21.89;99773.66;5131767;27;20081;-77
2021/06/25 06:08:51;;;;;;;12.52;9.35;;;;;;;43.32;22.56;99784.72;5116594;27;20395;-76
2021/06/25 06:11:17;;;;;;;12.98;9.40;;;;;;;42.79;22.83;99784.13;5105227;27;20043;-76
2021/06/25 06:13:43;;;;;;;15.95;9.73;;;;;;;43.42;22.71;99784.34;5114569;27;20048;-78
2021/06/25 06:16:08;;;;;;;;;;;;;;;43.45;22.47;99800.34;5135227;27;20254;-77
2021/06/25 06:18:44;;;;;;;15.25;10.38;;;;;;;43.55;22.54;99806.72;5113724;27;19922;-79
2021/06/25 06:21:13;;;;;;;10.70;9.60;;;;;;;44.11;21.58;99800.91;5086546;28;20039;-77
2021/06/25 06:32:44;;;;;;;8.82;7.30;;;;;;;43.56;21.26;99806.38;5104300;28;20092;-83
2021/06/25 06:34:39;;;;;;;8.90;8.00;;;;;;;44.00;20.93;99811.66;5101192;27;20046;-76
2021/06/25 06:37:05;;;;;;;12.52;9.77;;;;;;;43.40;21.80;99808.09;5117093;27;20492;-77
2021/06/25 06:39:31;;;;;;;11.50;8.45;;;;;;;43.57;21.38;99813.59;5090247;27;20043;-78
2021/06/25 06:41:59;;;;;;;11.82;8.05;;;;;;;43.35;21.85;99811.09;5118980;27;20043;-79
2021/06/25 06:44:25;;;;;;;15.95;8.85;;;;;;;43.91;20.52;99822.84;5112438;28;20595;-77
2021/06/25 06:46:51;;;;;;;9.73;7.93;;;;;;;44.07;20.55;99825.06;5092924;28;20048;-76
2021/06/25 06:49:17;;;;;;;13.85;8.25;;;;;;;44.87;19.55;99823.13;5129057;27;20040;-78
2021/06/25 06:51:43;;;;;;;12.38;8.00;;;;;;;44.98;19.92;99817.88;5115921;27;20455;-78
2021/06/25 06:54:10;;;;;;;13.68;7.88;;;;;;;46.47;18.39;99819.28;5131134;27;20084;-76
2021/06/25 06:56:36;;;;;;;9.60;7.43;;;;;;;46.90;17.22;99822.38;5095439;28;20397;-77
2021/06/25 06:59:02;;;;;;;8.77;7.88;;;;;;;47.76;16.67;99820.00;5079338;28;20050;-77
2021/06/25 07:01:30;;;;;;;12.35;7.78;;;;;;;45.81;17.99;99826.13;5114029;28;20043;-78
2021/06/25 07:03:55;;;;;;;11.65;8.70;;;;;;;44.92;19.29;99832.06;5114039;28;20035;-78
2021/06/25 07:06:21;;;;;;;11.73;8.18;;;;;;;46.36;18.10;99823.75;5114373;28;20523;-77
2021/06/25 07:08:47;;;;;;;12.90;9.38;;;;;;;45.18;18.87;99822.59;5114452;28;20186;-78
2021/06/25 07:11:19;;;;;;;11.30;9.38;;;;;;;45.30;19.20;99820.94;5062444;28;20492;-81
2021/06/25 07:13:53;;;;;;;11.00;8.93;;;;;;;45.17;20.10;99820.94;5113937;28;20056;-77
2021/06/25 07:16:19;;;;;;;11.52;8.98;;;;;;;47.01;18.17;99808.66;5097045;28;20051;-79
2021/06/25 07:18:46;;;;;;;14.52;8.95;;;;;;;47.83;17.48;99816.53;5114254;28;20047;-79
2021/06/25 07:21:12;;;;;;;12.02;8.80;;;;;;;47.31;18.36;99820.19;5113814;28;20040;-76
2021/06/25 07:23:38;;;;;;;11.80;9.05;;;;;;;48.29;17.08;99811.09;5113240;28;20515;-79
2021/06/25 07:26:04;;;;;;;17.52;9.20;;;;;;;48.27;16.18;99816.28;5113948;28;20088;-78
2021/06/25 07:28:30;;;;;;;11.30;8.23;;;;;;;47.89;16.59;99820.69;5112756;28;20453;-79
2021/06/25 07:30:56;;;;;;;9.93;8.15;;;;;;;47.47;16.26;99814.59;5113588;28;20460;-79
2021/06/25 07:33:21;;;;;;;10.88;9.32;;;;;;;46.21;17.53;99810.50;5113465;28;20035;-78
2021/06/25 07:35:48;;;;;;;10.05;9.20;;;;;;;44.98;18.69;99807.53;5078768;28;20047;-80
2021/06/25 07:38:14;;;;;;;13.50;9.68;;;;;;;44.84;19.55;99807.06;5095649;28;20112;-78
2021/06/25 07:40:40;;;;;;;11.15;9.60;;;;;;;43.97;20.29;99806.75;5113491;28;20122;-80
2021/06/25 07:43:06;;;;;;;10.85;9.48;;;;;;;44.59;20.03;99805.03;5114564;27;20047;-78
2021/06/25 07:45:32;;;;;;;13.25;8.70;;;;;;;46.51;17.85;99789.38;5134520;27;20100;-79
2021/06/25 07:47:58;;;;;;;10.70;9.35;;;;;;;47.70;16.64;99794.25;5132923;27;20396;-79
2021/06/25 07:50:24;;;;;;;19.80;9.63;;;;;;;47.99;16.41;99789.25;5134244;27;20043;-84
2021/06/25 07:52:50;;;;;;;11.70;9.45;;;;;;;46.37;18.06;99791.78;5115599;27;20035;-77
2021/06/25 07:55:16;;;;;;;10.45;8.95;;;;;;;47.27;17.51;99788.50;5132482;27;20519;-79
2021/06/25 07:57:43;;;;;;;13.55;9.07;;;;;;;48.01;17.06;99786.91;5134330;27;20129;-78
2021/06/25 08:00:10;;;;;;;13.05;8.95;;;;;;;49.18;16.15;99776.53;5134454;27;20617;-80
2021/06/25 08:02:42;;;;;;;11.73;9.73;;;;;;;46.61;18.02;99781.63;5133990;27;20121;-78
2021/06/25 08:05:08;;;;;;;11.23;10.05;;;;;;;46.47;17.38;99779.28;5132932;27;20623;-79
2021/06/25 08:07:35;;;;;;;14.55;9.65;;;;;;;46.28;17.92;99771.56;5133941;27;20043;-77
2021/06/25 08:10:00;;;;;;;10.50;9.45;;;;;;;45.02;18.55;99779.75;5133542;27;20042;-78
2021/06/25 08:12:28;;;;;;;10.32;9.07;;;;;;;46.91;16.91;99765.22;5132981;27;20043;-81
2021/06/25 08:14:56;;;;;;;11.45;9.20;;;;;;;46.12;17.52;99769.53;5108553;27;20040;-79
2021/06/25 08:17:22;;;;;;;12.45;8.57;;;;;;;47.31;16.21;99771.75;5125887;27;20039;-79
2021/06/25 08:19:48;;;;;;;9.98;8.35;;;;;;;47.84;16.56;99764.91;5115170;27;20391;-82
2021/06/25 08:22:14;;;;;;;10.00;8.88;;;;;;;48.13;15.99;99765.47;5083440;28;20032;-81
2021/06/25 08:24:40;;;;;;;14.15;9.55;;;;;;;45.90;17.55;99759.72;5061359;28;20458;-77
2021/06/25 08:27:06;;;;;;;9.55;8.60;;;;;;;45.61;18.37;99749.69;5095973;27;20035;-79
2021/06/25 08:29:32;;;;;;;9.75;8.45;;;;;;;44.80;19.29;99751.13;5095351;27;20039;-81
2021/06/25 08:31:57;;;;;;;12.05;9.45;;;;;;;45.50;18.78;99766.91;5062374;28;20104;-79
2021/06/25 08:34:24;;;;;;;14.57;8.07;;;;;;;46.29;16.94;99787.97;5117207;27;20035;-81
2021/06/25 08:36:50;;;;;;;26.98;9.02;;;;;;;44.16;19.03;99800.69;5130495;27;20035;-80
2021/06/25 08:39:16;;;;;;;27.42;9.57;;;;;;;41.01;22.79;99791.03;5120330;27;20031;-85
2021/06/25 08:41:43;;;;;;;12.52;6.70;;;;;;;40.33;23.90;99788.34;5099166;27;20035;-81
2021/06/25 08:44:09;;;;;;;12.25;6.32;;;;;;;38.73;25.14;99792.47;5072225;28;20639;-77
2021/06/25 08:46:34;;;;;;;;;;;;;;;37.72;27.04;99783.53;5130195;28;20050;-81
2021/06/25 08:49:04;;;;;;;18.48;5.88;;;;;;;36.38;28.72;99774.78;5118446;28;20293;-79
2021/06/25 08:51:32;;;;;;;9.20;5.75;;;;;;;35.78;29.05;99778.47;5116376;28;20030;-83
2021/06/25 08:53:59;;;;;;;10.35;5.80;;;;;;;35.11;30.27;99792.47;5095039;28;20039;-78
2021/06/25 08:56:29;;;;;;;9.48;5.57;;;;;;;34.70;30.79;99800.78;5114848;28;20051;-78
2021/06/25 08:58:55;;;;;;;8.98;5.60;;;;;;;34.06;32.08;99800.19;5122217;28;20047;-79
2021/06/25 09:01:22;;;;;;;12.95;5.70;;;;;;;33.66;32.72;99799.75;5113372;28;20130;-79
2021/06/25 09:03:53;;;;;;;14.43;6.18;;;;;;;32.51;34.87;99795.75;5091717;28;20043;-81
2021/06/25 09:06:19;;;;;;;12.38;6.20;;;;;;;32.14;36.43;99808.25;5077412;28;20032;-80
2021/06/25 09:08:45;;;;;;;11.77;6.30;;;;;;;31.69;37.30;99804.78;5111334;28;20039;-78
2021/06/25 09:11:25;;;;;;;11.50;6.68;;;;;;;31.39;38.32;99811.47;5094625;28;20039;-77
2021/06/25 09:14:11;;;;;;;11.45;5.72;;;;;;;31.11;39.00;99810.53;5112710;28;20047;-81
2021/06/25 09:16:38;;;;;;;15.25;7.20;;;;;;;31.04;39.67;99804.41;5112364;28;20074;-77
2021/06/25 09:19:16;;;;;;;11.63;6.55;;;;;;;31.05;39.27;99792.38;5113036;28;20035;-76
2021/06/25 09:22:03;;;;;;;13.02;6.75;;;;;;;30.59;40.64;99802.63;5112948;28;20039;-80
2021/06/25 09:24:29;;;;;;;15.50;6.93;;;;;;;30.21;41.91;99815.03;5112826;28;20047;-76
2021/06/25 09:27:00;;;;;;;16.53;7.60;;;;;;;29.89;43.13;99805.44;5112841;28;20048;-79
2021/06/25 09:29:29;;;;;;;14.35;6.95;;;;;;;29.71;43.81;99809.16;5112479;28;20043;-78
2021/06/25 09:32:00;;;;;;;17.85;8.30;;;;;;;29.62;44.51;99816.03;5112199;28;20453;-77
2021/06/25 09:34:52;;;;;;;15.90;8.15;;;;;;;29.64;44.69;99819.38;5112199;28;20044;-82
2021/06/25 09:37:19;;;;;;;12.77;7.20;;;;;;;29.57;44.60;99808.59;5112321;28;20472;-78
2021/06/25 09:40:00;;;;;;;11.90;7.43;;;;;;;29.51;44.09;99810.41;5112353;28;20051;-77
2021/06/25 09:42:27;;;;;;;12.40;7.22;;;;;;;29.42;44.39;99811.81;5112636;28;20063;-76
2021/06/25 09:44:59;;;;;;;13.52;7.28;;;;;;;29.01;45.56;99811.72;5125074;27;20047;-76
2021/06/25 09:47:34;;;;;;;8.32;7.15;;;;;;;28.88;46.29;99796.44;5136589;27;20050;-79
2021/06/25 09:50:07;;;;;;;12.60;7.18;;;;;;;28.78;46.06;99801.66;5136277;27;20061;-78
2021/06/25 09:53:04;;;;;;;14.70;7.93;;;;;;;28.94;45.85;99799.31;5135821;27;20043;-76
2021/06/25 09:55:30;;;;;;;14.90;7.50;;;;;;;28.84;45.71;99797.97;5136778;27;20063;-77
2021/06/25 09:58:19;;;;;;;12.55;7.65;;;;;;;28.93;45.12;99801.19;5136326;27;20067;-80
2021/06/25 10:01:26;;;;;;;15.63;7.22;;;;;;;28.83;44.88;99809.94;5136580;27;20441;-79
2021/06/25 10:03:59;;;;;;;14.23;6.57;;;;;;;28.98;44.14;99805.94;5100230;27;20499;-77
2021/06/25 10:06:34;;;;;;;15.60;8.07;;;;;;;29.10;43.45;99812.19;5135592;27;20045;-78
2021/06/25 10:09:00;;;;;;;11.45;7.50;;;;;;;29.21;43.44;99805.91;5135728;27;20552;-77
2021/06/25 10:11:30;;;;;;;12.60;7.45;;;;;;;29.28;43.05;99804.97;5136123;27;20043;-78
2021/06/25 10:13:59;;;;;;;14.95;8.38;;;;;;;29.44;43.10;99803.44;5135836;27;20440;-77
2021/06/25 10:16:26;;;;;;;17.83;9.13;;;;;;;29.51;42.22;99802.22;5136474;27;20039;-77
2021/06/25 10:18:53;;;;;;;;;;;;;;;29.55;41.99;99799.84;5118437;27;20444;-79
2021/06/25 10:21:22;;;;;;;;;;;;;;;29.51;42.08;99799.50;5136496;27;19915;-75
2021/06/25 10:23:50;;;;;;;23.17;8.70;;;;;;;29.58;42.63;99803.97;5135503;27;19930;-78
2021/06/25 10:26:19;;;;;;;15.68;8.20;;;;;;;29.54;41.96;99804.44;5135977;27;20046;-76
2021/06/25 10:28:46;;;;;;;15.82;9.48;;;;;;;29.72;41.82;99805.38;5136011;27;20039;-77
2021/06/25 10:31:14;;;;;;;16.02;8.95;;;;;;;29.73;41.23;99801.56;5136034;27;20046;-78
2021/06/25 10:33:41;;;;;;;15.25;8.93;;;;;;;29.79;41.33;99797.03;5135623;27;20161;-75
2021/06/25 10:36:19;;;;;;;17.90;9.88;;;;;;;29.74;40.67;99794.22;5135917;27;20179;-79
2021/06/25 10:38:46;;;;;;;15.15;9.27;;;;;;;29.52;41.28;99795.69;5136101;27;20196;-78
2021/06/25 10:41:14;;;;;;;12.60;8.32;;;;;;;29.53;41.70;99791.91;5100510;27;20429;-76
2021/06/25 10:43:44;;;;;;;20.70;8.98;;;;;;;29.68;41.07;99793.28;5135422;27;20130;-76
2021/06/25 10:46:32;;;;;;;15.93;7.82;;;;;;;29.94;41.73;99796.53;5135646;27;20119;-81
2021/06/25 10:49:01;;;;;;;13.95;6.28;;;;;;;30.05;42.11;99794.84;5134266;27;20039;-79
2021/06/25 10:51:28;;;;;;;16.08;6.82;;;;;;;29.96;42.16;99791.69;5134136;27;20043;-78
2021/06/25 10:54:16;;;;;;;23.95;7.53;;;;;;;29.62;42.87;99791.50;5135294;27;20039;-77
2021/06/25 10:56:49;;;;;;;22.67;7.22;;;;;;;29.65;42.49;99780.97;5133939;27;20051;-78
2021/06/25 10:59:28;;;;;;;18.80;7.03;;;;;;;29.84;42.31;99786.22;5134829;27;20392;-76
2021/06/25 11:02:02;;;;;;;17.33;7.32;;;;;;;29.91;42.24;99786.09;5134895;27;20095;-82
2021/06/25 11:04:38;;;;;;;21.25;7.70;;;;;;;29.99;41.68;99783.81;5134470;27;20043;-77
2021/06/25 11:07:42;;;;;;;27.25;8.15;;;;;;;30.34;40.46;99773.78;5134391;27;20055;-77
2021/06/25 11:10:09;;;;;;;29.35;8.02;;;;;;;30.72;40.44;99774.13;5135261;27;20066;-76
2021/06/25 11:12:40;;;;;;;26.45;7.45;;;;;;;30.82;40.29;99771.59;5134867;27;20403;-78
2021/06/25 11:15:08;;;;;;;16.10;6.65;;;;;;;31.14;39.72;99760.88;5134663;27;20081;-79
2021/06/25 11:17:55;;;;;;;12.95;6.22;;;;;;;31.49;40.02;99755.28;5133547;27;20043;-80
2021/06/25 11:20:36;;;;;;;10.02;5.57;;;;;;;31.65;38.77;99748.91;5135048;27;20073;-82
2021/06/25 11:23:08;;;;;;;11.68;6.10;;;;;;;32.09;39.42;99753.47;5134358;27;20039;-77
2021/06/25 11:25:55;;;;;;;9.25;5.38;;;;;;;32.49;38.07;99745.88;5134741;27;20072;-77
2021/06/25 11:28:43;;;;;;;13.73;5.43;;;;;;;32.80;36.38;99748.88;5134305;27;20111;-76
2021/06/25 11:33:51;;;;;;;11.30;5.63;;;;;;;32.84;36.80;99747.28;5133877;27;20421;-76
2021/06/25 11:36:34;;;;;;;8.77;5.20;;;;;;;32.86;37.38;99759.59;5134651;27;20058;-77
2021/06/25 11:39:20;;;;;;;8.93;5.05;;;;;;;32.81;35.94;99753.25;5134282;27;20130;-76
2021/06/25 11:41:56;;;;;;;6.63;4.53;;;;;;;32.71;33.98;99754.81;5134125;27;20035;-80
2021/06/25 11:44:43;;;;;;;9.13;5.50;;;;;;;32.80;34.57;99754.34;5134066;27;20057;-77